Terminal Aerodrome Forecast
Issued by NWS

Home | Current Version | Previous Version | Text Only | Print | Product List | Glossary On
Versions: 1 2 3 4 5 6 7 8 9 10 11 12 13 14 15
000
FTUS45 KABQ 281100 RRA
TAFLVS
TAF
KLVS 281141Z 2812/2912 05008KT P6SM BKN120
      TEMPO 2812/2815 BKN030
     FM281600 15009KT P6SM SCT060 BKN130
     FM282100 19011G18KT P6SM VCTS BKN060CB OVC120
      TEMPO 2822/2824 VRB15G25KT -TSRA BKN050CB
     FM290100 16010KT P6SM VCSH BKN060
     FM290600 18098KT P6SM BKN015=

USA.gov is the U.S. government's official web portal to all federal, state and local government web resources and services.